Flight Track Log - Related Links

Times and Time Zones

All times are in EDT time to prevent confusion due to time zone crossing. See the N966QS flight status page for this flight to view local times or setup timezone preferences in your user account.

Time Position Orientation Groundspeed Altitude Reporting Facility
EDT Latitude Longitude Course Direction KTS MPH feet Rate Location/Type
Thu 11:53:12 AM 38.9333 -77.5167 243° Southwest 218 251 2,600  Level Potomac TRACON
Thu 11:54:12 AM 38.9000 -77.6000 243° Southwest 267 307 4,000 1,300 Climbing Potomac TRACON
Thu 11:55:12 AM 38.8667 -77.6833 243° Southwest 268 308 5,200 1,390 Climbing Potomac TRACON
Thu 11:55:34 AM 38.8344 -77.6942 195° South 267 307 5,900 1,373 Climbing Washington Center
Thu 11:56:35 AM 38.7594 -77.6947 180° South 281 323 7,100 1,574 Climbing Washington Center
Thu 11:57:36 AM 38.6869 -77.6689 164° South 281 323 9,100 1,934 Climbing Washington Center
Thu 11:58:36 AM 38.6083 -77.6375 163° South 288 331 11,000 1,678 Climbing Washington Center
Thu 11:59:34 AM 38.5211 -77.6111 167° South 342 394 12,400 1,815 Climbing Washington Center
Thu 12:00:35 PM 38.4214 -77.5872 169° South 363 418 14,600 2,066 Climbing Washington Center
Thu 12:01:36 PM 38.3328 -77.6564 211° Southwest 358 412 16,600 1,714 Climbing Washington Center
Thu 12:02:34 PM 38.2642 -77.7681 232° Southwest 368 423 18,000 1,563 Climbing Washington Center
Thu 12:03:35 PM 38.1911 -77.8797 230° Southwest 387 445 19,700 1,488 Climbing Washington Center
Thu 12:04:35 PM 38.1136 -77.9961 230° Southwest 416 479 21,000 645 Climbing Washington Center
Thu 12:05:36 PM 38.0300 -78.1172 229° Southwest 446 513 21,000  Level Washington Center
Thu 12:06:35 PM 37.9481 -78.2436 231° Southwest 468 539 21,000 353 Level Washington Center
Thu 12:07:35 PM 37.8639 -78.3669 229° Southwest 468 539 21,700 1,289 Climbing Washington Center
Thu 12:08:36 PM 37.7797 -78.4872 229° Southwest 468 539 23,600 1,916 Climbing Washington Center
Thu 12:09:34 PM 37.6953 -78.6072 228° Southwest 468 539 25,500 1,983 Climbing Washington Center
Thu 12:10:34 PM 37.6194 -78.7197 230° Southwest 468 539 27,500 1,934 Climbing Washington Center
Thu 12:11:35 PM 37.5328 -78.8392 228° Southwest 468 539 29,400 1,884 Climbing Washington Center
Thu 12:12:35 PM 37.4458 -78.9636 229° Southwest 468 539 31,300 1,815 Climbing Washington Center
Thu 12:13:34 PM 37.3567 -79.0931 229° Southwest 474 545 33,000 1,664 Climbing Washington Center
Thu 12:14:34 PM 37.2631 -79.2219 228° Southwest 491 565 34,600 1,500 Climbing Washington Center
Thu 12:15:34 PM 37.1653 -79.3475 226° Southwest 499 574 36,000 694 Climbing Washington Center
Thu 12:16:35 PM 37.0567 -79.4853 225° Southwest 511 588 36,000  Level Washington Center
Thu 12:17:35 PM 36.9567 -79.6078 224° Southwest 511 588 36,000  Level Washington Center
Thu 12:18:36 PM 36.8608 -79.7300 226° Southwest 516 594 36,000  Level Washington Center
Thu 12:20:25 PM 36.6925 -79.9328 224° Southwest 483 556 36,000  Level Atlanta Center
Thu 12:21:25 PM 36.5983 -80.0489 225° Southwest 478 550 36,000  Level Atlanta Center
Thu 12:22:25 PM 36.4958 -80.1753 225° Southwest 478 550 36,000 -50 Level Atlanta Center
Thu 12:23:25 PM 36.4036 -80.2906 225° Southwest 478 550 35,900 -500 Descending Atlanta Center
Thu 12:24:25 PM 36.2894 -80.3783 212° Southwest 478 550 35,000 -450 Descending Atlanta Center
Thu 12:25:25 PM 36.1683 -80.4458 204° Southwest 478 550 35,000  Level Atlanta Center
Thu 12:26:25 PM 36.0575 -80.5072 204° Southwest 478 550 35,000  Level Atlanta Center
Thu 12:27:25 PM 35.9303 -80.5819 205° Southwest 478 550 35,000 -350 Level Atlanta Center
Thu 12:28:25 PM 35.8092 -80.6511 205° Southwest 478 550 34,300 -950 Descending Atlanta Center
Thu 12:29:25 PM 35.6839 -80.7175 203° Southwest 478 550 33,100 -1,250 Descending Atlanta Center
Thu 12:30:25 PM 35.5667 -80.7836 205° Southwest 496 571 31,800 -1,350 Descending Atlanta Center
Thu 12:31:25 PM 35.4392 -80.8550 205° Southwest 507 583 30,400 -1,200 Descending Atlanta Center
Thu 12:32:25 PM 35.3117 -80.9261 204° Southwest 507 583 29,400 -1,050 Descending Atlanta Center
Thu 12:33:25 PM 35.1839 -80.9944 204° Southwest 502 578 28,300 -1,050 Descending Atlanta Center
Thu 12:34:25 PM 35.0461 -81.0756 206° Southwest 497 572 27,300 -1,000 Descending Atlanta Center
Thu 12:35:25 PM 34.9225 -81.1358 202° Southwest 491 565 26,300 -1,050 Descending Atlanta Center
Thu 12:36:25 PM 34.8008 -81.2056 205° Southwest 491 565 25,200 -1,031 Descending Atlanta Center
Thu 12:38:08 PM 34.5944 -81.3189 204° Southwest 489 563 23,500 -1,031 Descending Jacksonville Center
Thu 12:39:08 PM 34.4783 -81.3789 203° Southwest 472 543 22,400 -1,050 Descending Jacksonville Center
Thu 12:40:08 PM 34.3600 -81.4436 204° Southwest 467 537 21,400 -1,000 Descending Jacksonville Center
Thu 12:41:08 PM 34.2461 -81.5033 203° Southwest 461 531 20,400 -1,450 Descending Jacksonville Center
Thu 12:42:08 PM 34.1300 -81.5656 204° Southwest 455 524 18,500 -1,900 Descending Jacksonville Center
Thu 12:44:00 PM 33.9285 -81.6624 202° Southwest  Level FlightAware Approximate
Thu 12:51:00 PM 33.3667 -81.9500 203° Southwest  Level FlightAware Approximate
Thu 12:52:00 PM 33.3699 -81.9645 203° Southwest  Level Estimated
Thu 12:53:00 PM 33.3699 -81.9645 203° Southwest  Level Estimated
Thu 12:54:00 PM 33.3699 -81.9645 203° Southwest  Level Estimated
Thu 12:55:00 PM 33.3699 -81.9645 203° Southwest  Level Estimated
Thu 12:56:00 PM 33.3699 -81.9645 203° Southwest  Level Estimated
Thu 12:57:00 PM 33.3699 -81.9645 203° Southwest  Level Estimated
Thu 12:58:00 PM 33.3699 -81.9645 203° Southwest  Level Estimated

Login

Don't have an account? Register now (free) for customized features, flight alerts, and more!